METAR Analyzer

一覧表示

Hello, Guest. (Login)

TNCM/SXM  -  プリンセス・ジュリアナ/セントマーティン

観測日時
2022-09-30 06:00 (UTC) (72分前)
気温
27
露点
24
湿数
3
相対湿度
83.7%
QNH
1011hPa
推定現地気圧
1010.5hPa
推定海面気圧
1011.0hPa
体感温度
22.6
(無風時)
26.9
HI
30.1
気温前日比
-1
体感温度前日比
-0.5
HI前日比
-1.2
水平視程
>10000m
鉛直視程
データなし
雲底高度
No dense clouds
V/I
VMC (VFR)
RVR
No RVR data
卓越風
6kt from 80° (40° ~ 110°)
ガスト
No gust
降水
報告なし
その他の天気
報告なし
少しの雲 @ 1600ft AGL

TNCM 300600Z 08006KT 040V110 9999 FEW016 27/24 Q1011

TIST/STT  -  シリル・E・キング

観測日時
2022-09-30 06:53 (UTC) (19分前)
気温
24.4
露点
21.1
湿数
3.3
相対湿度
81.9%
QNH
1009.1hPa
推定現地気圧
1008.3hPa
推定海面気圧
1009.1hPa
体感温度
20.6
(無風時)
24.6
HI
25
気温前日比
-2.3
体感温度前日比
-1.5
HI前日比
-4.2
水平視程
>10SM
鉛直視程
データなし
雲底高度
No dense clouds
V/I
VMC (VFR)
RVR
No RVR data
卓越風
3kt from 110°
ガスト
No gust
降水
報告なし
その他の天気
報告なし
目立った雲なし

TIST 300653Z 11003KT 10SM CLR 24/21 A2980 RMK AO2 SLP092 T02440211 $

MUHA/HAV  -  ホセ・マルティ

観測日時
2022-09-30 05:50 (UTC) (82分前)
気温
24
露点
22
湿数
2
相対湿度
88.6%
QNH
1008hPa
推定現地気圧
1000.4hPa
推定海面気圧
1007.8hPa
体感温度
21.3
(無風時)
24.6
HI
24.8
気温前日比
±0
体感温度前日比
-1.3
HI前日比
-0.1
水平視程
9000m
鉛直視程
データなし
雲底高度
No dense clouds
V/I
VMC (VFR)
RVR
No RVR data
卓越風
2kt from VRB
ガスト
No gust
降水
報告なし
その他の天気
報告なし
散在する雲 @ 2000ft AGL

MUHA 300550Z VRB02KT 9000 SCT020 24/22 Q1008

MDSD/SDQ  -  ラス・アメリカス

観測日時
2022-09-30 07:00 (UTC) (12分前)
気温
24
露点
23
湿数
1
相対湿度
94.1%
QNH
1009hPa
推定現地気圧
1007.0hPa
推定海面気圧
1009.0hPa
体感温度
20.7
(無風時)
24.9
HI
24.9
気温前日比
+1
体感温度前日比
+1.6
HI前日比
+0.9
水平視程
>10000m
鉛直視程
データなし
雲底高度
30000ft AGL
V/I
VMC (VFR)
RVR
No RVR data
卓越風
3kt from VRB
ガスト
No gust
降水
報告なし
その他の天気
少しの積乱雲 @ 1600ft AGL / 散在する雲 @ 1600ft AGL / 隙間のある雲 @ 30000ft AGL

MDSD 300700Z VRB03KT 9999 TS FEW016CB SCT016 BKN300 24/23 Q1009 CB/E/SE/S/SW

MDPC/PUJ  -  プンタ・カーナ

観測日時
2022-09-30 07:00 (UTC) (12分前)
気温
23
露点
22
湿数
1
相対湿度
94.1%
QNH
1009hPa
推定現地気圧
1007.3hPa
推定海面気圧
1008.9hPa
体感温度
17.9
(無風時)
24.1
HI
23.8
気温前日比
-1
体感温度前日比
-7
HI前日比
-1.1
水平視程
8000m
鉛直視程
データなし
雲底高度
1800ft AGL
V/I
VMC (VFR)
RVR
No RVR data
卓越風
6kt from 230°
ガスト
No gust
降水
中程度の雨 および 雷
その他の天気
少しの積乱雲 @ 1600ft AGL / 隙間のある雲 @ 1800ft AGL / 隙間のある雲 @ 30000ft AGL

MDPC 300700Z 23006KT 8000 TSRA FEW016CB BKN018 BKN300 23/22 Q1009 CB/E/SW

TJSJ/SJU  -  ルイス・ムニョス・マリン

観測日時
2022-09-30 06:56 (UTC) (16分前)
気温
25.6
露点
23.3
湿数
2.3
相対湿度
87.1%
QNH
1009.1hPa
推定現地気圧
1008.7hPa
推定海面気圧
1009.0hPa
体感温度
22.3
(無風時)
25.9
HI
26.5
気温前日比
-0.5
体感温度前日比
-3.9
HI前日比
-0.5
水平視程
>10SM
鉛直視程
データなし
雲底高度
No dense clouds
V/I
VMC (VFR)
RVR
No RVR data
卓越風
3kt from 210°
ガスト
No gust
降水
報告なし
その他の天気
報告なし
目立った雲なし

TJSJ 300656Z 21003KT 10SM CLR 26/23 A2980 RMK AO2 SLP090 T02560233

720.3msec